sensor_id;sensor_type;location;lat;lon;timestamp;P1;durP1;ratioP1;P2;durP2;ratioP2
63874;SDS011;51595;24.180;-110.296;2022-08-21T00:00:45;5.78;;;2.05;;
63874;SDS011;51595;24.180;-110.296;2022-08-21T00:03:12;5.05;;;2.15;;
63874;SDS011;51595;24.180;-110.296;2022-08-21T00:05:40;8.05;;;2.15;;
63874;SDS011;51595;24.180;-110.296;2022-08-21T00:08:09;7.40;;;2.42;;
63874;SDS011;51595;24.180;-110.296;2022-08-21T00:10:36;9.65;;;2.63;;
63874;SDS011;51595;24.180;-110.296;2022-08-21T00:13:04;9.95;;;2.53;;
63874;SDS011;51595;24.180;-110.296;2022-08-21T00:15:32;6.50;;;2.28;;
63874;SDS011;51595;24.180;-110.296;2022-08-21T00:18:00;8.70;;;2.72;;
63874;SDS011;51595;24.180;-110.296;2022-08-21T00:20:26;12.13;;;2.78;;
63874;SDS011;51595;24.180;-110.296;2022-08-21T00:22:53;10.30;;;2.80;;
63874;SDS011;51595;24.180;-110.296;2022-08-21T00:25:20;21.42;;;2.80;;
63874;SDS011;51595;24.180;-110.296;2022-08-21T00:27:47;5.50;;;2.28;;
63874;SDS011;51595;24.180;-110.296;2022-08-21T00:30:15;7.90;;;2.38;;
63874;SDS011;51595;24.180;-110.296;2022-08-21T00:32:44;10.75;;;2.60;;
63874;SDS011;51595;24.180;-110.296;2022-08-21T00:35:13;9.60;;;2.85;;
63874;SDS011;51595;24.180;-110.296;2022-08-21T00:37:41;9.40;;;2.88;;
63874;SDS011;51595;24.180;-110.296;2022-08-21T00:40:10;10.35;;;2.58;;
63874;SDS011;51595;24.180;-110.296;2022-08-21T00:42:39;9.50;;;2.55;;
63874;SDS011;51595;24.180;-110.296;2022-08-21T00:45:07;12.40;;;2.75;;
63874;SDS011;51595;24.180;-110.296;2022-08-21T00:47:34;14.68;;;3.00;;
63874;SDS011;51595;24.180;-110.296;2022-08-21T00:50:00;13.88;;;2.92;;
63874;SDS011;51595;24.180;-110.296;2022-08-21T00:52:30;13.10;;;2.92;;
63874;SDS011;51595;24.180;-110.296;2022-08-21T00:54:59;10.32;;;2.80;;
63874;SDS011;51595;24.180;-110.296;2022-08-21T00:57:30;8.05;;;2.50;;
63874;SDS011;51595;24.180;-110.296;2022-08-21T01:00:06;8.32;;;2.28;;
63874;SDS011;51595;24.180;-110.296;2022-08-21T01:02:35;9.73;;;2.20;;
63874;SDS011;51595;24.180;-110.296;2022-08-21T01:05:02;6.55;;;2.33;;
63874;SDS011;51595;24.180;-110.296;2022-08-21T01:07:29;8.05;;;2.63;;
63874;SDS011;51595;24.180;-110.296;2022-08-21T01:09:56;6.95;;;2.15;;
63874;SDS011;51595;24.180;-110.296;2022-08-21T01:12:23;8.43;;;2.80;;
63874;SDS011;51595;24.180;-110.296;2022-08-21T01:14:50;7.80;;;2.75;;
63874;SDS011;51595;24.180;-110.296;2022-08-21T01:17:17;8.13;;;2.42;;
63874;SDS011;51595;24.180;-110.296;2022-08-21T01:19:46;10.38;;;3.28;;
63874;SDS011;51595;24.180;-110.296;2022-08-21T01:22:12;10.85;;;2.83;;
63874;SDS011;51595;24.180;-110.296;2022-08-21T01:24:39;7.43;;;2.65;;
63874;SDS011;51595;24.180;-110.296;2022-08-21T01:27:06;18.10;;;2.53;;
63874;SDS011;51595;24.180;-110.296;2022-08-21T01:29:37;11.43;;;2.80;;
63874;SDS011;51595;24.180;-110.296;2022-08-21T01:32:12;11.80;;;2.95;;
63874;SDS011;51595;24.180;-110.296;2022-08-21T01:34:41;13.85;;;3.17;;
63874;SDS011;51595;24.180;-110.296;2022-08-21T01:37:09;11.20;;;2.58;;
63874;SDS011;51595;24.180;-110.296;2022-08-21T01:39:36;12.30;;;2.90;;
63874;SDS011;51595;24.180;-110.296;2022-08-21T01:42:03;8.48;;;3.30;;
63874;SDS011;51595;24.180;-110.296;2022-08-21T01:44:30;17.58;;;3.20;;
63874;SDS011;51595;24.180;-110.296;2022-08-21T01:46:57;15.32;;;3.22;;
63874;SDS011;51595;24.180;-110.296;2022-08-21T01:49:25;9.25;;;2.72;;
63874;SDS011;51595;24.180;-110.296;2022-08-21T01:51:52;10.85;;;2.63;;
63874;SDS011;51595;24.180;-110.296;2022-08-21T01:54:19;9.60;;;3.00;;
63874;SDS011;51595;24.180;-110.296;2022-08-21T01:56:47;13.02;;;3.38;;
63874;SDS011;51595;24.180;-110.296;2022-08-21T01:59:16;8.88;;;2.47;;
63874;SDS011;51595;24.180;-110.296;2022-08-21T02:01:44;10.93;;;3.03;;
63874;SDS011;51595;24.180;-110.296;2022-08-21T02:04:10;12.00;;;2.90;;
63874;SDS011;51595;24.180;-110.296;2022-08-21T02:06:37;7.82;;;2.63;;
63874;SDS011;51595;24.180;-110.296;2022-08-21T02:09:05;9.85;;;3.10;;
63874;SDS011;51595;24.180;-110.296;2022-08-21T02:11:34;12.60;;;3.00;;
63874;SDS011;51595;24.180;-110.296;2022-08-21T02:14:01;11.80;;;3.17;;
63874;SDS011;51595;24.180;-110.296;2022-08-21T02:16:28;15.10;;;3.10;;
63874;SDS011;51595;24.180;-110.296;2022-08-21T02:18:54;13.77;;;3.30;;
63874;SDS011;51595;24.180;-110.296;2022-08-21T02:21:21;14.98;;;3.17;;
63874;SDS011;51595;24.180;-110.296;2022-08-21T02:23:47;12.23;;;2.72;;
63874;SDS011;51595;24.180;-110.296;2022-08-21T02:26:14;9.90;;;3.15;;
63874;SDS011;51595;24.180;-110.296;2022-08-21T02:28:41;8.98;;;2.95;;
63874;SDS011;51595;24.180;-110.296;2022-08-21T02:31:08;14.55;;;3.17;;
63874;SDS011;51595;24.180;-110.296;2022-08-21T02:33:34;7.47;;;2.67;;
63874;SDS011;51595;24.180;-110.296;2022-08-21T02:36:04;18.00;;;2.85;;
63874;SDS011;51595;24.180;-110.296;2022-08-21T02:38:50;10.35;;;3.17;;
63874;SDS011;51595;24.180;-110.296;2022-08-21T02:41:20;16.92;;;3.33;;
63874;SDS011;51595;24.180;-110.296;2022-08-21T02:43:47;10.70;;;2.90;;
63874;SDS011;51595;24.180;-110.296;2022-08-21T02:46:15;12.73;;;3.35;;
63874;SDS011;51595;24.180;-110.296;2022-08-21T02:48:42;8.75;;;2.55;;
63874;SDS011;51595;24.180;-110.296;2022-08-21T02:51:14;12.10;;;3.00;;
63874;SDS011;51595;24.180;-110.296;2022-08-21T02:53:45;17.42;;;3.80;;
63874;SDS011;51595;24.180;-110.296;2022-08-21T02:56:14;12.15;;;2.95;;
63874;SDS011;51595;24.180;-110.296;2022-08-21T02:58:43;10.13;;;3.00;;
63874;SDS011;51595;24.180;-110.296;2022-08-21T03:01:12;12.80;;;2.53;;
63874;SDS011;51595;24.180;-110.296;2022-08-21T03:03:40;7.88;;;3.08;;
63874;SDS011;51595;24.180;-110.296;2022-08-21T03:06:08;12.13;;;3.17;;
63874;SDS011;51595;24.180;-110.296;2022-08-21T03:08:36;11.77;;;2.72;;
63874;SDS011;51595;24.180;-110.296;2022-08-21T03:11:03;11.35;;;3.10;;
63874;SDS011;51595;24.180;-110.296;2022-08-21T03:13:30;8.93;;;2.78;;
63874;SDS011;51595;24.180;-110.296;2022-08-21T03:15:57;11.15;;;3.38;;
63874;SDS011;51595;24.180;-110.296;2022-08-21T03:18:24;12.00;;;2.67;;
63874;SDS011;51595;24.180;-110.296;2022-08-21T03:20:51;11.90;;;2.90;;
63874;SDS011;51595;24.180;-110.296;2022-08-21T03:23:17;8.75;;;3.20;;
63874;SDS011;51595;24.180;-110.296;2022-08-21T03:25:44;8.32;;;2.67;;
63874;SDS011;51595;24.180;-110.296;2022-08-21T03:28:13;11.88;;;3.28;;
63874;SDS011;51595;24.180;-110.296;2022-08-21T03:30:44;11.80;;;2.95;;
63874;SDS011;51595;24.180;-110.296;2022-08-21T03:33:13;11.57;;;2.97;;
63874;SDS011;51595;24.180;-110.296;2022-08-21T03:35:40;9.50;;;3.10;;
63874;SDS011;51595;24.180;-110.296;2022-08-21T03:38:11;10.52;;;3.30;;
63874;SDS011;51595;24.180;-110.296;2022-08-21T03:40:38;16.17;;;3.70;;
63874;SDS011;51595;24.180;-110.296;2022-08-21T03:43:05;9.27;;;3.13;;
63874;SDS011;51595;24.180;-110.296;2022-08-21T03:45:34;13.48;;;3.13;;
63874;SDS011;51595;24.180;-110.296;2022-08-21T03:48:02;14.57;;;3.40;;
63874;SDS011;51595;24.180;-110.296;2022-08-21T03:50:30;13.13;;;3.67;;
63874;SDS011;51595;24.180;-110.296;2022-08-21T03:52:59;11.98;;;3.63;;
63874;SDS011;51595;24.180;-110.296;2022-08-21T03:55:26;11.07;;;3.45;;
63874;SDS011;51595;24.180;-110.296;2022-08-21T03:57:53;9.25;;;3.33;;
63874;SDS011;51595;24.180;-110.296;2022-08-21T04:00:19;9.77;;;3.47;;
63874;SDS011;51595;24.180;-110.296;2022-08-21T04:02:47;9.35;;;2.83;;
63874;SDS011;51595;24.180;-110.296;2022-08-21T04:05:14;7.68;;;3.08;;
63874;SDS011;51595;24.180;-110.296;2022-08-21T04:07:58;14.30;;;4.00;;
63874;SDS011;51595;24.180;-110.296;2022-08-21T04:10:27;10.05;;;3.00;;
63874;SDS011;51595;24.180;-110.296;2022-08-21T04:12:55;6.95;;;3.10;;
63874;SDS011;51595;24.180;-110.296;2022-08-21T04:15:23;9.60;;;2.85;;
63874;SDS011;51595;24.180;-110.296;2022-08-21T04:17:50;8.55;;;3.20;;
63874;SDS011;51595;24.180;-110.296;2022-08-21T04:20:17;12.80;;;3.03;;
63874;SDS011;51595;24.180;-110.296;2022-08-21T04:22:45;14.00;;;3.75;;
63874;SDS011;51595;24.180;-110.296;2022-08-21T04:25:12;11.95;;;3.55;;
63874;SDS011;51595;24.180;-110.296;2022-08-21T04:27:40;12.77;;;3.42;;
63874;SDS011;51595;24.180;-110.296;2022-08-21T04:30:07;9.00;;;3.42;;
63874;SDS011;51595;24.180;-110.296;2022-08-21T04:32:38;13.02;;;3.50;;
63874;SDS011;51595;24.180;-110.296;2022-08-21T04:35:08;18.33;;;3.83;;
63874;SDS011;51595;24.180;-110.296;2022-08-21T04:37:35;10.57;;;3.20;;
63874;SDS011;51595;24.180;-110.296;2022-08-21T04:40:03;8.43;;;3.15;;
63874;SDS011;51595;24.180;-110.296;2022-08-21T04:42:30;9.32;;;3.35;;
63874;SDS011;51595;24.180;-110.296;2022-08-21T04:44:57;13.80;;;3.40;;
63874;SDS011;51595;24.180;-110.296;2022-08-21T04:47:24;13.25;;;3.47;;
63874;SDS011;51595;24.180;-110.296;2022-08-21T04:49:50;10.43;;;3.25;;
63874;SDS011;51595;24.180;-110.296;2022-08-21T04:52:18;10.95;;;3.00;;
63874;SDS011;51595;24.180;-110.296;2022-08-21T04:54:47;11.95;;;3.90;;
63874;SDS011;51595;24.180;-110.296;2022-08-21T04:57:17;13.15;;;3.28;;
63874;SDS011;51595;24.180;-110.296;2022-08-21T04:59:46;10.40;;;3.60;;
63874;SDS011;51595;24.180;-110.296;2022-08-21T05:02:15;13.35;;;3.13;;
63874;SDS011;51595;24.180;-110.296;2022-08-21T05:04:48;11.40;;;3.50;;
63874;SDS011;51595;24.180;-110.296;2022-08-21T05:07:18;12.70;;;3.90;;
63874;SDS011;51595;24.180;-110.296;2022-08-21T05:09:47;12.55;;;3.60;;
63874;SDS011;51595;24.180;-110.296;2022-08-21T05:12:13;12.13;;;3.70;;
63874;SDS011;51595;24.180;-110.296;2022-08-21T05:14:40;12.20;;;3.60;;
63874;SDS011;51595;24.180;-110.296;2022-08-21T05:17:07;12.85;;;3.60;;
63874;SDS011;51595;24.180;-110.296;2022-08-21T05:19:34;10.68;;;3.50;;
63874;SDS011;51595;24.180;-110.296;2022-08-21T05:22:01;12.80;;;3.55;;
63874;SDS011;51595;24.180;-110.296;2022-08-21T05:24:28;8.45;;;3.00;;
63874;SDS011;51595;24.180;-110.296;2022-08-21T05:26:54;9.32;;;3.40;;
63874;SDS011;51595;24.180;-110.296;2022-08-21T05:29:21;14.93;;;3.83;;
63874;SDS011;51595;24.180;-110.296;2022-08-21T05:31:47;11.13;;;3.53;;
63874;SDS011;51595;24.180;-110.296;2022-08-21T05:34:17;8.40;;;3.60;;
63874;SDS011;51595;24.180;-110.296;2022-08-21T05:36:45;13.05;;;3.60;;
63874;SDS011;51595;24.180;-110.296;2022-08-21T05:39:11;16.40;;;3.63;;
63874;SDS011;51595;24.180;-110.296;2022-08-21T05:41:38;11.80;;;3.65;;
63874;SDS011;51595;24.180;-110.296;2022-08-21T05:44:05;10.70;;;3.38;;
63874;SDS011;51595;24.180;-110.296;2022-08-21T05:46:31;10.65;;;3.08;;
63874;SDS011;51595;24.180;-110.296;2022-08-21T05:48:57;8.02;;;3.17;;
63874;SDS011;51595;24.180;-110.296;2022-08-21T05:51:24;10.60;;;3.40;;
63874;SDS011;51595;24.180;-110.296;2022-08-21T05:53:50;12.95;;;3.65;;
63874;SDS011;51595;24.180;-110.296;2022-08-21T05:56:17;8.45;;;4.05;;
63874;SDS011;51595;24.180;-110.296;2022-08-21T05:58:43;11.35;;;3.63;;
63874;SDS011;51595;24.180;-110.296;2022-08-21T06:01:10;7.47;;;3.28;;
63874;SDS011;51595;24.180;-110.296;2022-08-21T06:03:37;12.60;;;3.65;;
63874;SDS011;51595;24.180;-110.296;2022-08-21T06:06:05;10.52;;;3.95;;
63874;SDS011;51595;24.180;-110.296;2022-08-21T06:08:32;8.73;;;3.53;;
63874;SDS011;51595;24.180;-110.296;2022-08-21T06:11:00;11.13;;;3.83;;
63874;SDS011;51595;24.180;-110.296;2022-08-21T06:13:27;9.07;;;3.17;;
63874;SDS011;51595;24.180;-110.296;2022-08-21T06:16:12;23.45;;;4.15;;
63874;SDS011;51595;24.180;-110.296;2022-08-21T06:18:40;12.05;;;4.30;;
63874;SDS011;51595;24.180;-110.296;2022-08-21T06:21:07;9.20;;;3.50;;
63874;SDS011;51595;24.180;-110.296;2022-08-21T06:23:34;9.75;;;3.40;;
63874;SDS011;51595;24.180;-110.296;2022-08-21T06:26:01;9.73;;;3.75;;
63874;SDS011;51595;24.180;-110.296;2022-08-21T06:28:30;9.95;;;3.60;;
63874;SDS011;51595;24.180;-110.296;2022-08-21T06:30:58;9.77;;;3.88;;
63874;SDS011;51595;24.180;-110.296;2022-08-21T06:33:24;9.95;;;3.60;;
63874;SDS011;51595;24.180;-110.296;2022-08-21T06:35:51;10.32;;;3.20;;
63874;SDS011;51595;24.180;-110.296;2022-08-21T06:38:17;13.75;;;3.42;;
63874;SDS011;51595;24.180;-110.296;2022-08-21T06:40:44;12.98;;;3.63;;
63874;SDS011;51595;24.180;-110.296;2022-08-21T06:43:12;9.88;;;3.03;;
63874;SDS011;51595;24.180;-110.296;2022-08-21T06:45:40;10.82;;;4.03;;
63874;SDS011;51595;24.180;-110.296;2022-08-21T06:48:07;14.50;;;4.03;;
63874;SDS011;51595;24.180;-110.296;2022-08-21T06:50:34;11.07;;;4.05;;
63874;SDS011;51595;24.180;-110.296;2022-08-21T06:53:06;11.98;;;3.75;;
63874;SDS011;51595;24.180;-110.296;2022-08-21T06:55:35;11.02;;;3.53;;
63874;SDS011;51595;24.180;-110.296;2022-08-21T06:58:02;11.32;;;4.13;;
63874;SDS011;51595;24.180;-110.296;2022-08-21T07:00:29;12.27;;;3.60;;
63874;SDS011;51595;24.180;-110.296;2022-08-21T07:02:56;10.80;;;3.78;;
63874;SDS011;51595;24.180;-110.296;2022-08-21T07:05:27;12.35;;;3.95;;
63874;SDS011;51595;24.180;-110.296;2022-08-21T07:07:55;10.82;;;3.67;;
63874;SDS011;51595;24.180;-110.296;2022-08-21T07:10:23;8.23;;;3.40;;
63874;SDS011;51595;24.180;-110.296;2022-08-21T07:12:53;5.70;;;2.97;;
63874;SDS011;51595;24.180;-110.296;2022-08-21T07:15:20;10.40;;;3.33;;
63874;SDS011;51595;24.180;-110.296;2022-08-21T07:17:46;9.43;;;3.30;;
63874;SDS011;51595;24.180;-110.296;2022-08-21T07:20:13;9.25;;;3.40;;
63874;SDS011;51595;24.180;-110.296;2022-08-21T07:22:48;10.85;;;4.00;;
63874;SDS011;51595;24.180;-110.296;2022-08-21T07:25:25;9.77;;;3.80;;
63874;SDS011;51595;24.180;-110.296;2022-08-21T07:27:52;13.00;;;3.60;;
63874;SDS011;51595;24.180;-110.296;2022-08-21T07:30:22;11.15;;;3.13;;
63874;SDS011;51595;24.180;-110.296;2022-08-21T07:32:51;10.65;;;3.50;;
63874;SDS011;51595;24.180;-110.296;2022-08-21T07:35:23;10.80;;;3.17;;
63874;SDS011;51595;24.180;-110.296;2022-08-21T07:37:50;10.45;;;4.15;;
63874;SDS011;51595;24.180;-110.296;2022-08-21T07:40:17;8.60;;;3.35;;
63874;SDS011;51595;24.180;-110.296;2022-08-21T07:42:44;8.50;;;3.53;;
63874;SDS011;51595;24.180;-110.296;2022-08-21T07:45:15;10.90;;;3.33;;
63874;SDS011;51595;24.180;-110.296;2022-08-21T07:47:41;12.20;;;3.47;;
63874;SDS011;51595;24.180;-110.296;2022-08-21T07:50:08;13.80;;;3.95;;
63874;SDS011;51595;24.180;-110.296;2022-08-21T07:52:36;12.30;;;3.97;;
63874;SDS011;51595;24.180;-110.296;2022-08-21T07:55:03;12.90;;;4.00;;
63874;SDS011;51595;24.180;-110.296;2022-08-21T07:57:30;12.63;;;3.85;;
63874;SDS011;51595;24.180;-110.296;2022-08-21T07:59:56;9.57;;;3.15;;
63874;SDS011;51595;24.180;-110.296;2022-08-21T08:02:24;14.63;;;3.67;;
63874;SDS011;51595;24.180;-110.296;2022-08-21T08:04:51;14.93;;;3.63;;
63874;SDS011;51595;24.180;-110.296;2022-08-21T08:07:18;12.32;;;3.92;;
63874;SDS011;51595;24.180;-110.296;2022-08-21T08:09:45;9.93;;;4.00;;
63874;SDS011;51595;24.180;-110.296;2022-08-21T08:12:12;10.70;;;3.75;;
63874;SDS011;51595;24.180;-110.296;2022-08-21T08:14:38;10.52;;;3.25;;
63874;SDS011;51595;24.180;-110.296;2022-08-21T08:17:04;12.38;;;3.80;;
63874;SDS011;51595;24.180;-110.296;2022-08-21T08:19:31;8.70;;;3.45;;
63874;SDS011;51595;24.180;-110.296;2022-08-21T08:21:57;11.50;;;4.07;;
63874;SDS011;51595;24.180;-110.296;2022-08-21T08:24:24;10.35;;;3.75;;
63874;SDS011;51595;24.180;-110.296;2022-08-21T08:26:50;10.60;;;3.60;;
63874;SDS011;51595;24.180;-110.296;2022-08-21T08:29:16;14.63;;;3.90;;
63874;SDS011;51595;24.180;-110.296;2022-08-21T08:31:43;16.25;;;3.50;;
63874;SDS011;51595;24.180;-110.296;2022-08-21T08:34:09;8.93;;;3.42;;
63874;SDS011;51595;24.180;-110.296;2022-08-21T08:36:36;8.35;;;3.35;;
63874;SDS011;51595;24.180;-110.296;2022-08-21T08:39:03;11.55;;;3.17;;
63874;SDS011;51595;24.180;-110.296;2022-08-21T08:41:30;8.43;;;3.67;;
63874;SDS011;51595;24.180;-110.296;2022-08-21T08:43:59;12.00;;;3.80;;
63874;SDS011;51595;24.180;-110.296;2022-08-21T08:46:34;12.80;;;3.45;;
63874;SDS011;51595;24.180;-110.296;2022-08-21T08:49:22;10.10;;;3.80;;
63874;SDS011;51595;24.180;-110.296;2022-08-21T08:51:59;9.85;;;3.55;;
63874;SDS011;51595;24.180;-110.296;2022-08-21T08:54:40;10.23;;;3.55;;
63874;SDS011;51595;24.180;-110.296;2022-08-21T08:57:16;6.88;;;3.47;;
63874;SDS011;51595;24.180;-110.296;2022-08-21T08:59:45;10.55;;;3.67;;
63874;SDS011;51595;24.180;-110.296;2022-08-21T09:02:14;11.38;;;3.55;;
63874;SDS011;51595;24.180;-110.296;2022-08-21T09:04:42;13.68;;;4.07;;
63874;SDS011;51595;24.180;-110.296;2022-08-21T09:10:10;9.20;;;3.47;;
63874;SDS011;51595;24.180;-110.296;2022-08-21T09:12:47;7.30;;;3.35;;
63874;SDS011;51595;24.180;-110.296;2022-08-21T09:18:07;11.32;;;3.53;;
63874;SDS011;51595;24.180;-110.296;2022-08-21T09:29:21;8.43;;;3.40;;
63874;SDS011;51595;24.180;-110.296;2022-08-21T09:31:54;10.32;;;3.40;;
63874;SDS011;51595;24.180;-110.296;2022-08-21T09:34:25;14.95;;;3.75;;
63874;SDS011;51595;24.180;-110.296;2022-08-21T09:36:56;7.70;;;3.67;;
63874;SDS011;51595;24.180;-110.296;2022-08-21T09:39:28;6.68;;;3.28;;
63874;SDS011;51595;24.180;-110.296;2022-08-21T09:41:58;8.13;;;3.17;;
63874;SDS011;51595;24.180;-110.296;2022-08-21T09:44:34;6.32;;;3.10;;
63874;SDS011;51595;24.180;-110.296;2022-08-21T09:47:09;10.40;;;3.50;;
63874;SDS011;51595;24.180;-110.296;2022-08-21T09:49:40;14.93;;;3.92;;
63874;SDS011;51595;24.180;-110.296;2022-08-21T09:52:16;7.93;;;3.45;;
63874;SDS011;51595;24.180;-110.296;2022-08-21T09:54:49;11.50;;;3.47;;
63874;SDS011;51595;24.180;-110.296;2022-08-21T09:57:26;11.95;;;3.45;;
63874;SDS011;51595;24.180;-110.296;2022-08-21T10:00:15;11.60;;;3.40;;
63874;SDS011;51595;24.180;-110.296;2022-08-21T10:02:45;9.52;;;3.65;;
63874;SDS011;51595;24.180;-110.296;2022-08-21T10:05:17;18.77;;;4.50;;
63874;SDS011;51595;24.180;-110.296;2022-08-21T10:07:47;9.93;;;3.33;;
63874;SDS011;51595;24.180;-110.296;2022-08-21T10:10:16;12.23;;;4.05;;
63874;SDS011;51595;24.180;-110.296;2022-08-21T10:13:46;7.70;;;3.05;;
63874;SDS011;51595;24.180;-110.296;2022-08-21T10:15:47;9.35;;;3.13;;
63874;SDS011;51595;24.180;-110.296;2022-08-21T10:24:07;13.43;;;3.70;;
63874;SDS011;51595;24.180;-110.296;2022-08-21T10:29:14;7.20;;;3.10;;
63874;SDS011;51595;24.180;-110.296;2022-08-21T10:37:24;10.90;;;3.67;;
63874;SDS011;51595;24.180;-110.296;2022-08-21T10:42:49;10.88;;;3.88;;
63874;SDS011;51595;24.180;-110.296;2022-08-21T10:56:57;9.63;;;4.20;;
63874;SDS011;51595;24.180;-110.296;2022-08-21T11:02:32;9.63;;;3.42;;
63874;SDS011;51595;24.180;-110.296;2022-08-21T11:07:43;12.63;;;3.80;;
63874;SDS011;51595;24.180;-110.296;2022-08-21T11:10:16;8.48;;;3.40;;
63874;SDS011;51595;24.180;-110.296;2022-08-21T11:12:52;9.75;;;3.90;;
63874;SDS011;51595;24.180;-110.296;2022-08-21T11:15:42;14.07;;;4.10;;
63874;SDS011;51595;24.180;-110.296;2022-08-21T11:26:41;10.45;;;4.00;;
63874;SDS011;51595;24.180;-110.296;2022-08-21T11:29:40;9.48;;;3.30;;
63874;SDS011;51595;24.180;-110.296;2022-08-21T11:46:16;10.73;;;3.80;;
63874;SDS011;51595;24.180;-110.296;2022-08-21T11:51:51;10.40;;;3.88;;
63874;SDS011;51595;24.180;-110.296;2022-08-21T11:54:42;11.30;;;3.97;;
63874;SDS011;51595;24.180;-110.296;2022-08-21T11:57:32;8.15;;;3.13;;
63874;SDS011;51595;24.180;-110.296;2022-08-21T12:00:20;9.13;;;3.42;;
63874;SDS011;51595;24.180;-110.296;2022-08-21T12:03:11;9.43;;;3.75;;
63874;SDS011;51595;24.180;-110.296;2022-08-21T12:05:44;16.58;;;4.07;;
63874;SDS011;51595;24.180;-110.296;2022-08-21T12:11:23;11.20;;;3.40;;
63874;SDS011;51595;24.180;-110.296;2022-08-21T12:13:55;11.25;;;3.92;;
63874;SDS011;51595;24.180;-110.296;2022-08-21T12:21:51;12.00;;;4.07;;
63874;SDS011;51595;24.180;-110.296;2022-08-21T12:24:41;6.53;;;3.53;;
63874;SDS011;51595;24.180;-110.296;2022-08-21T12:29:52;10.18;;;3.95;;
63874;SDS011;51595;24.180;-110.296;2022-08-21T12:32:30;11.60;;;4.03;;
63874;SDS011;51595;24.180;-110.296;2022-08-21T12:35:21;14.25;;;4.05;;
63874;SDS011;51595;24.180;-110.296;2022-08-21T12:38:17;9.38;;;3.50;;
63874;SDS011;51595;24.180;-110.296;2022-08-21T12:40:49;12.45;;;3.95;;
63874;SDS011;51595;24.180;-110.296;2022-08-21T12:43:28;10.80;;;3.58;;
63874;SDS011;51595;24.180;-110.296;2022-08-21T12:46:07;9.40;;;3.42;;
63874;SDS011;51595;24.180;-110.296;2022-08-21T12:48:48;11.93;;;3.83;;
63874;SDS011;51595;24.180;-110.296;2022-08-21T12:54:08;8.35;;;2.97;;
63874;SDS011;51595;24.180;-110.296;2022-08-21T12:56:34;16.05;;;4.57;;
63874;SDS011;51595;24.180;-110.296;2022-08-21T12:59:05;10.50;;;3.70;;
63874;SDS011;51595;24.180;-110.296;2022-08-21T13:01:34;9.88;;;3.58;;
63874;SDS011;51595;24.180;-110.296;2022-08-21T13:04:18;13.43;;;4.50;;
63874;SDS011;51595;24.180;-110.296;2022-08-21T13:06:49;8.30;;;3.67;;
63874;SDS011;51595;24.180;-110.296;2022-08-21T13:09:19;8.15;;;3.53;;
63874;SDS011;51595;24.180;-110.296;2022-08-21T13:11:56;12.00;;;4.35;;
63874;SDS011;51595;24.180;-110.296;2022-08-21T13:16:57;13.48;;;3.95;;
63874;SDS011;51595;24.180;-110.296;2022-08-21T13:19:25;13.23;;;4.28;;
63874;SDS011;51595;24.180;-110.296;2022-08-21T13:21:52;9.65;;;4.00;;
63874;SDS011;51595;24.180;-110.296;2022-08-21T13:24:23;15.55;;;4.25;;
63874;SDS011;51595;24.180;-110.296;2022-08-21T13:26:55;14.38;;;4.53;;
63874;SDS011;51595;24.180;-110.296;2022-08-21T13:29:27;16.48;;;4.80;;
63874;SDS011;51595;24.180;-110.296;2022-08-21T13:31:58;8.50;;;4.43;;
63874;SDS011;51595;24.180;-110.296;2022-08-21T13:34:29;10.32;;;4.07;;
63874;SDS011;51595;24.180;-110.296;2022-08-21T13:36:59;12.32;;;3.75;;
63874;SDS011;51595;24.180;-110.296;2022-08-21T13:39:29;10.80;;;3.90;;
63874;SDS011;51595;24.180;-110.296;2022-08-21T13:41:57;13.77;;;3.92;;
63874;SDS011;51595;24.180;-110.296;2022-08-21T13:44:36;12.77;;;3.88;;
63874;SDS011;51595;24.180;-110.296;2022-08-21T13:47:10;11.32;;;3.80;;
63874;SDS011;51595;24.180;-110.296;2022-08-21T13:49:41;9.07;;;3.22;;
63874;SDS011;51595;24.180;-110.296;2022-08-21T13:52:21;7.53;;;3.13;;
63874;SDS011;51595;24.180;-110.296;2022-08-21T13:54:57;13.68;;;3.40;;
63874;SDS011;51595;24.180;-110.296;2022-08-21T13:57:32;9.93;;;3.05;;
63874;SDS011;51595;24.180;-110.296;2022-08-21T14:00:16;12.68;;;3.33;;
63874;SDS011;51595;24.180;-110.296;2022-08-21T14:03:07;9.35;;;3.33;;
63874;SDS011;51595;24.180;-110.296;2022-08-21T14:05:43;12.35;;;3.47;;
63874;SDS011;51595;24.180;-110.296;2022-08-21T14:08:18;6.75;;;2.83;;
63874;SDS011;51595;24.180;-110.296;2022-08-21T14:11:00;8.88;;;2.95;;
63874;SDS011;51595;24.180;-110.296;2022-08-21T14:16:01;7.32;;;2.58;;
63874;SDS011;51595;24.180;-110.296;2022-08-21T14:18:28;6.90;;;2.63;;
63874;SDS011;51595;24.180;-110.296;2022-08-21T14:21:13;7.82;;;2.20;;
63874;SDS011;51595;24.180;-110.296;2022-08-21T14:23:58;7.18;;;2.60;;
63874;SDS011;51595;24.180;-110.296;2022-08-21T14:26:35;8.32;;;2.72;;
63874;SDS011;51595;24.180;-110.296;2022-08-21T14:29:09;10.02;;;2.90;;
63874;SDS011;51595;24.180;-110.296;2022-08-21T14:31:38;8.70;;;2.67;;
63874;SDS011;51595;24.180;-110.296;2022-08-21T14:34:04;8.50;;;2.67;;
63874;SDS011;51595;24.180;-110.296;2022-08-21T14:36:31;12.77;;;2.90;;
63874;SDS011;51595;24.180;-110.296;2022-08-21T14:39:00;8.02;;;2.58;;
63874;SDS011;51595;24.180;-110.296;2022-08-21T14:41:26;6.55;;;2.40;;
63874;SDS011;51595;24.180;-110.296;2022-08-21T14:43:54;7.45;;;2.20;;
63874;SDS011;51595;24.180;-110.296;2022-08-21T14:46:26;10.27;;;2.80;;
63874;SDS011;51595;24.180;-110.296;2022-08-21T14:48:54;13.20;;;2.70;;
63874;SDS011;51595;24.180;-110.296;2022-08-21T14:51:21;6.57;;;2.28;;
63874;SDS011;51595;24.180;-110.296;2022-08-21T14:53:47;8.25;;;2.63;;
63874;SDS011;51595;24.180;-110.296;2022-08-21T15:08:22;9.80;;;2.42;;
63874;SDS011;51595;24.180;-110.296;2022-08-21T15:10:48;6.28;;;2.45;;
63874;SDS011;51595;24.180;-110.296;2022-08-21T15:13:15;6.03;;;1.98;;
63874;SDS011;51595;24.180;-110.296;2022-08-21T15:15:42;7.22;;;2.22;;
63874;SDS011;51595;24.180;-110.296;2022-08-21T15:18:11;8.20;;;2.38;;
63874;SDS011;51595;24.180;-110.296;2022-08-21T15:20:37;7.72;;;2.50;;
63874;SDS011;51595;24.180;-110.296;2022-08-21T15:23:05;10.65;;;2.70;;
63874;SDS011;51595;24.180;-110.296;2022-08-21T15:25:33;7.25;;;2.78;;
63874;SDS011;51595;24.180;-110.296;2022-08-21T15:28:01;11.10;;;2.72;;
63874;SDS011;51595;24.180;-110.296;2022-08-21T15:30:28;8.25;;;2.33;;
63874;SDS011;51595;24.180;-110.296;2022-08-21T15:32:56;10.68;;;2.80;;
63874;SDS011;51595;24.180;-110.296;2022-08-21T15:35:23;6.75;;;2.17;;
63874;SDS011;51595;24.180;-110.296;2022-08-21T15:37:50;7.55;;;2.80;;
63874;SDS011;51595;24.180;-110.296;2022-08-21T15:40:16;7.22;;;2.80;;
63874;SDS011;51595;24.180;-110.296;2022-08-21T15:42:44;7.75;;;2.47;;
63874;SDS011;51595;24.180;-110.296;2022-08-21T15:45:12;6.13;;;2.15;;
63874;SDS011;51595;24.180;-110.296;2022-08-21T15:47:42;4.40;;;2.17;;
63874;SDS011;51595;24.180;-110.296;2022-08-21T15:50:10;7.15;;;2.10;;
63874;SDS011;51595;24.180;-110.296;2022-08-21T15:52:38;9.10;;;2.28;;
63874;SDS011;51595;24.180;-110.296;2022-08-21T15:55:05;9.13;;;2.45;;
63874;SDS011;51595;24.180;-110.296;2022-08-21T15:57:32;7.97;;;2.13;;
63874;SDS011;51595;24.180;-110.296;2022-08-21T16:00:03;9.68;;;2.70;;
63874;SDS011;51595;24.180;-110.296;2022-08-21T16:02:45;5.88;;;1.95;;